Hermann - S — V2EI6 — position and weather

sailwx.info

Track history (hours):
 
Tides and Currents Weather Stations Pressure Air Temp Water Temp Dewpoint Dewpoint Depression Visibility Wind Speed Wind Dir Waves Ship Positions

Hermann - S

Last reported at 2017-Oct-20 11:48 UTC. Time now 2017-Nov-19 21:56 UTC.
Position N 01°14' E 104°05'.
Warning: this ship's position is 30 days out of date.

Length 190 m; draft 6.9 m.

Type: Ship. MMSI: 305441000.

Date/timePositionNaut miles runAvg speedWind from/ knotsBaromVisibWave heightAir tempDewpointWater temp
2017-Oct-20 11:48N 01°14' E 104°05'2 5.8
2017-Oct-20 11:30N 01°14' E 104°03'3 6.0
2017-Oct-20 10:59N 01°14' E 104°00'4 7.3
2017-Oct-20 10:30N 01°15' E 103°57'2 0.3
2017-Oct-20 03:12N 01°17' E 103°56'0 0.0
2017-Oct-20 02:51N 01°17' E 103°56'0 0.0
2017-Oct-20 02:30N 01°17' E 103°56'0 0.0
2017-Oct-20 01:54N 01°17' E 103°56'0 0.0
2017-Oct-20 01:30N 01°17' E 103°56'0 0.0
2017-Oct-20 01:00N 01°17' E 103°56'0 0.0
2017-Oct-20 00:24N 01°17' E 103°56'0 0.0
2017-Oct-20 00:00N 01°17' E 103°56'0 0.0
2017-Oct-19 23:24N 01°17' E 103°56'0 0.0
2017-Oct-19 22:42N 01°17' E 103°56'0 0.3
2017-Oct-19 22:30N 01°17' E 103°56'0 0.2
2017-Oct-19 21:42N 01°17' E 103°56'0 0.0
2017-Oct-19 21:12N 01°17' E 103°56'0 0.1
2017-Oct-19 21:00N 01°17' E 103°56'0 0.0
2017-Oct-19 20:24N 01°17' E 103°56'0 0.0
2017-Oct-19 19:48N 01°17' E 103°56'0 0.0
2017-Oct-19 19:30N 01°17' E 103°56'0 0.0
2017-Oct-19 18:54N 01°17' E 103°56'0 0.0
2017-Oct-19 18:24N 01°17' E 103°56'0 0.0
2017-Oct-19 18:00N 01°17' E 103°56'0 0.2
2017-Oct-19 17:24N 01°17' E 103°56'0 0.3
2017-Oct-19 17:00N 01°17' E 103°56'0 0.0
2017-Oct-19 16:30N 01°17' E 103°56'0 0.0
2017-Oct-19 15:48N 01°17' E 103°56'0 0.0
2017-Oct-19 15:24N 01°17' E 103°56'0 0.0
2017-Oct-19 14:54N 01°17' E 103°56'0 0.1
2017-Oct-19 14:30N 01°17' E 103°56'0 0.0
2017-Oct-19 13:54N 01°17' E 103°56'0 0.2
2017-Oct-19 13:30N 01°17' E 103°56'4 6.4
2017-Oct-19 12:53N 01°16' E 103°60'3 7.7
2017-Oct-19 12:28N 01°18' E 104°03'11 8.5
2017-Oct-19 11:09N 01°26' E 103°55'2 9.2
2017-Oct-19 10:59N 01°26' E 103°53'  
2017-Oct-17 06:05N 01°26' E 103°53'0 0.0
2017-Oct-17 05:59N 01°26' E 103°53'0 0.0
2017-Oct-15 18:57N 01°26' E 103°53'0 0.0
2017-Oct-15 18:01N 01°26' E 103°53'0 0.0
2017-Oct-15 07:45N 01°26' E 103°53'9 7.5
2017-Oct-15 06:32N 01°22' E 104°02'110.6
2017-Oct-15 06:25N 01°22' E 104°03'3 6.5
2017-Oct-15 06:00N 01°19' E 104°04'0 0.1
2017-Oct-15 05:14N 01°19' E 104°04'0 0.1
2017-Oct-15 04:56N 01°19' E 104°04'0 0.3
2017-Oct-15 04:28N 01°19' E 104°04'  
Track history (hours):
 
Tides and Currents Weather Stations Pressure Air Temp Water Temp Dewpoint Dewpoint Depression Visibility Wind Speed Wind Dir Waves Ship Positions

Hermann - S

Last reported at 2017-Oct-20 11:48 UTC. Time now 2017-Nov-19 21:56 UTC.
Position N 01°14' E 104°05'.
Warning: this ship's position is 30 days out of date.

Length 190 m; draft 6.9 m.

Type: Ship. MMSI: 305441000.

Date/timePositionNaut miles runAvg speedWind from/ knotsBaromVisibWave heightAir tempDewpointWater temp
2017-Oct-20 11:48N 01°14' E 104°05'2 5.8
2017-Oct-20 11:30N 01°14' E 104°03'3 6.0
2017-Oct-20 10:59N 01°14' E 104°00'4 7.3
2017-Oct-20 10:30N 01°15' E 103°57'2 0.3
2017-Oct-20 03:12N 01°17' E 103°56'0 0.0
2017-Oct-20 02:51N 01°17' E 103°56'0 0.0
2017-Oct-20 02:30N 01°17' E 103°56'0 0.0
2017-Oct-20 01:54N 01°17' E 103°56'0 0.0
2017-Oct-20 01:30N 01°17' E 103°56'0 0.0
2017-Oct-20 01:00N 01°17' E 103°56'0 0.0
2017-Oct-20 00:24N 01°17' E 103°56'0 0.0
2017-Oct-20 00:00N 01°17' E 103°56'0 0.0
2017-Oct-19 23:24N 01°17' E 103°56'0 0.0
2017-Oct-19 22:42N 01°17' E 103°56'0 0.3
2017-Oct-19 22:30N 01°17' E 103°56'0 0.2
2017-Oct-19 21:42N 01°17' E 103°56'0 0.0
2017-Oct-19 21:12N 01°17' E 103°56'0 0.1
2017-Oct-19 21:00N 01°17' E 103°56'0 0.0
2017-Oct-19 20:24N 01°17' E 103°56'0 0.0
2017-Oct-19 19:48N 01°17' E 103°56'0 0.0
2017-Oct-19 19:30N 01°17' E 103°56'0 0.0
2017-Oct-19 18:54N 01°17' E 103°56'0 0.0
2017-Oct-19 18:24N 01°17' E 103°56'0 0.0
2017-Oct-19 18:00N 01°17' E 103°56'0 0.2
2017-Oct-19 17:24N 01°17' E 103°56'0 0.3
2017-Oct-19 17:00N 01°17' E 103°56'0 0.0
2017-Oct-19 16:30N 01°17' E 103°56'0 0.0
2017-Oct-19 15:48N 01°17' E 103°56'0 0.0
2017-Oct-19 15:24N 01°17' E 103°56'0 0.0
2017-Oct-19 14:54N 01°17' E 103°56'0 0.1
2017-Oct-19 14:30N 01°17' E 103°56'0 0.0
2017-Oct-19 13:54N 01°17' E 103°56'0 0.2
2017-Oct-19 13:30N 01°17' E 103°56'4 6.4
2017-Oct-19 12:53N 01°16' E 103°60'3 7.7
2017-Oct-19 12:28N 01°18' E 104°03'11 8.5
2017-Oct-19 11:09N 01°26' E 103°55'2 9.2
2017-Oct-19 10:59N 01°26' E 103°53'  
2017-Oct-17 06:05N 01°26' E 103°53'0 0.0
2017-Oct-17 05:59N 01°26' E 103°53'0 0.0
2017-Oct-15 18:57N 01°26' E 103°53'0 0.0
2017-Oct-15 18:01N 01°26' E 103°53'0 0.0
2017-Oct-15 07:45N 01°26' E 103°53'9 7.5
2017-Oct-15 06:32N 01°22' E 104°02'110.6
2017-Oct-15 06:25N 01°22' E 104°03'3 6.5
2017-Oct-15 06:00N 01°19' E 104°04'0 0.1
2017-Oct-15 05:14N 01°19' E 104°04'0 0.1
2017-Oct-15 04:56N 01°19' E 104°04'0 0.3
2017-Oct-15 04:28N 01°19' E 104°04'  

Dump ship's entire track history